sensor_id;sensor_type;location;lat;lon;timestamp;P1;durP1;ratioP1;P2;durP2;ratioP2
45836;SDS011;31548;51.420;-0.040;2023-04-24T00:01:54;30.02;;;18.20;;
45836;SDS011;31548;51.420;-0.040;2023-04-24T00:15:09;29.83;;;17.40;;
45836;SDS011;31548;51.420;-0.040;2023-04-24T00:19:24;32.22;;;20.20;;
45836;SDS011;31548;51.420;-0.040;2023-04-24T00:55:46;28.50;;;17.25;;
45836;SDS011;31548;51.420;-0.040;2023-04-24T01:13:35;27.80;;;16.00;;
45836;SDS011;31548;51.420;-0.040;2023-04-24T01:27:45;26.92;;;16.13;;
45836;SDS011;31548;51.420;-0.040;2023-04-24T02:03:33;31.63;;;17.35;;
45836;SDS011;31548;51.420;-0.040;2023-04-24T02:12:10;22.95;;;14.95;;
45836;SDS011;31548;51.420;-0.040;2023-04-24T02:25:58;21.25;;;13.45;;
45836;SDS011;31548;51.420;-0.040;2023-04-24T03:16:20;22.98;;;13.82;;
45836;SDS011;31548;51.420;-0.040;2023-04-24T03:18:48;25.10;;;16.08;;
45836;SDS011;31548;51.420;-0.040;2023-04-24T03:21:15;27.48;;;15.80;;
45836;SDS011;31548;51.420;-0.040;2023-04-24T03:23:43;25.13;;;13.75;;
45836;SDS011;31548;51.420;-0.040;2023-04-24T03:26:11;24.08;;;14.18;;
45836;SDS011;31548;51.420;-0.040;2023-04-24T03:28:49;25.65;;;14.93;;
45836;SDS011;31548;51.420;-0.040;2023-04-24T03:31:16;17.88;;;10.40;;
45836;SDS011;31548;51.420;-0.040;2023-04-24T03:33:46;20.70;;;12.40;;
45836;SDS011;31548;51.420;-0.040;2023-04-24T03:36:14;30.30;;;16.45;;
45836;SDS011;31548;51.420;-0.040;2023-04-24T03:38:42;20.08;;;11.52;;
45836;SDS011;31548;51.420;-0.040;2023-04-24T03:41:21;22.45;;;13.95;;
45836;SDS011;31548;51.420;-0.040;2023-04-24T03:43:53;29.05;;;14.20;;
45836;SDS011;31548;51.420;-0.040;2023-04-24T03:46:21;21.00;;;14.05;;
45836;SDS011;31548;51.420;-0.040;2023-04-24T03:48:53;20.42;;;11.52;;
45836;SDS011;31548;51.420;-0.040;2023-04-24T03:51:26;27.17;;;15.02;;
45836;SDS011;31548;51.420;-0.040;2023-04-24T03:54:08;23.80;;;13.38;;
45836;SDS011;31548;51.420;-0.040;2023-04-24T03:56:38;26.42;;;16.08;;
45836;SDS011;31548;51.420;-0.040;2023-04-24T03:59:06;24.13;;;12.90;;
45836;SDS011;31548;51.420;-0.040;2023-04-24T04:01:35;24.90;;;15.70;;
45836;SDS011;31548;51.420;-0.040;2023-04-24T04:04:13;23.67;;;14.52;;
45836;SDS011;31548;51.420;-0.040;2023-04-24T04:06:43;19.45;;;12.38;;
45836;SDS011;31548;51.420;-0.040;2023-04-24T04:09:11;22.67;;;13.18;;
45836;SDS011;31548;51.420;-0.040;2023-04-24T04:11:39;20.25;;;12.77;;
45836;SDS011;31548;51.420;-0.040;2023-04-24T04:14:07;24.63;;;14.77;;
45836;SDS011;31548;51.420;-0.040;2023-04-24T04:16:37;18.40;;;12.10;;
45836;SDS011;31548;51.420;-0.040;2023-04-24T04:19:06;21.23;;;12.80;;
45836;SDS011;31548;51.420;-0.040;2023-04-24T04:21:34;21.20;;;12.25;;
45836;SDS011;31548;51.420;-0.040;2023-04-24T04:24:20;16.83;;;10.38;;
45836;SDS011;31548;51.420;-0.040;2023-04-24T04:26:50;20.02;;;11.52;;
45836;SDS011;31548;51.420;-0.040;2023-04-24T04:29:23;18.40;;;11.77;;
45836;SDS011;31548;51.420;-0.040;2023-04-24T04:31:51;19.08;;;12.40;;
45836;SDS011;31548;51.420;-0.040;2023-04-24T04:34:20;15.90;;;9.82;;
45836;SDS011;31548;51.420;-0.040;2023-04-24T04:36:50;18.77;;;10.15;;
45836;SDS011;31548;51.420;-0.040;2023-04-24T04:39:50;22.75;;;12.90;;
45836;SDS011;31548;51.420;-0.040;2023-04-24T04:42:25;22.65;;;14.20;;
45836;SDS011;31548;51.420;-0.040;2023-04-24T04:44:53;21.83;;;11.77;;
45836;SDS011;31548;51.420;-0.040;2023-04-24T04:47:30;22.15;;;12.63;;
45836;SDS011;31548;51.420;-0.040;2023-04-24T04:50:00;24.73;;;12.27;;
45836;SDS011;31548;51.420;-0.040;2023-04-24T04:52:31;16.83;;;9.88;;
45836;SDS011;31548;51.420;-0.040;2023-04-24T04:55:19;18.83;;;11.43;;
45836;SDS011;31548;51.420;-0.040;2023-04-24T04:58:05;29.23;;;15.98;;
45836;SDS011;31548;51.420;-0.040;2023-04-24T05:00:33;24.02;;;13.38;;
45836;SDS011;31548;51.420;-0.040;2023-04-24T05:03:09;17.95;;;11.95;;
45836;SDS011;31548;51.420;-0.040;2023-04-24T05:05:52;22.67;;;13.27;;
45836;SDS011;31548;51.420;-0.040;2023-04-24T05:08:20;24.80;;;14.55;;
45836;SDS011;31548;51.420;-0.040;2023-04-24T05:10:54;18.65;;;11.73;;
45836;SDS011;31548;51.420;-0.040;2023-04-24T05:13:24;16.27;;;10.07;;
45836;SDS011;31548;51.420;-0.040;2023-04-24T05:18:37;28.02;;;16.17;;
45836;SDS011;31548;51.420;-0.040;2023-04-24T05:21:07;22.92;;;13.45;;
45836;SDS011;31548;51.420;-0.040;2023-04-24T05:23:37;17.77;;;10.27;;
45836;SDS011;31548;51.420;-0.040;2023-04-24T05:26:05;25.35;;;13.05;;
45836;SDS011;31548;51.420;-0.040;2023-04-24T05:28:34;28.02;;;13.18;;
45836;SDS011;31548;51.420;-0.040;2023-04-24T05:31:07;19.57;;;11.13;;
45836;SDS011;31548;51.420;-0.040;2023-04-24T05:33:35;18.58;;;11.77;;
45836;SDS011;31548;51.420;-0.040;2023-04-24T05:36:03;21.67;;;13.07;;
45836;SDS011;31548;51.420;-0.040;2023-04-24T05:38:33;18.73;;;11.20;;
45836;SDS011;31548;51.420;-0.040;2023-04-24T05:41:00;23.88;;;13.00;;
45836;SDS011;31548;51.420;-0.040;2023-04-24T05:43:28;23.05;;;12.75;;
45836;SDS011;31548;51.420;-0.040;2023-04-24T05:45:56;16.40;;;10.48;;
45836;SDS011;31548;51.420;-0.040;2023-04-24T05:48:23;19.95;;;10.13;;
45836;SDS011;31548;51.420;-0.040;2023-04-24T05:50:52;22.95;;;11.40;;
45836;SDS011;31548;51.420;-0.040;2023-04-24T05:53:20;18.25;;;10.73;;
45836;SDS011;31548;51.420;-0.040;2023-04-24T05:55:47;18.83;;;9.63;;
45836;SDS011;31548;51.420;-0.040;2023-04-24T05:58:15;17.85;;;9.77;;
45836;SDS011;31548;51.420;-0.040;2023-04-24T06:00:45;16.80;;;10.10;;
45836;SDS011;31548;51.420;-0.040;2023-04-24T06:03:13;21.20;;;12.00;;
45836;SDS011;31548;51.420;-0.040;2023-04-24T06:05:42;21.40;;;12.50;;
45836;SDS011;31548;51.420;-0.040;2023-04-24T06:08:10;21.98;;;10.85;;
45836;SDS011;31548;51.420;-0.040;2023-04-24T06:10:39;18.00;;;9.80;;
45836;SDS011;31548;51.420;-0.040;2023-04-24T06:13:08;16.48;;;8.95;;
45836;SDS011;31548;51.420;-0.040;2023-04-24T06:15:39;15.40;;;8.43;;
45836;SDS011;31548;51.420;-0.040;2023-04-24T06:18:11;16.58;;;7.97;;
45836;SDS011;31548;51.420;-0.040;2023-04-24T06:20:40;17.13;;;8.18;;
45836;SDS011;31548;51.420;-0.040;2023-04-24T06:23:09;14.73;;;8.07;;
45836;SDS011;31548;51.420;-0.040;2023-04-24T06:25:36;15.63;;;9.50;;
45836;SDS011;31548;51.420;-0.040;2023-04-24T06:28:04;19.27;;;7.93;;
45836;SDS011;31548;51.420;-0.040;2023-04-24T06:30:32;14.02;;;8.30;;
45836;SDS011;31548;51.420;-0.040;2023-04-24T06:33:00;16.02;;;6.93;;
45836;SDS011;31548;51.420;-0.040;2023-04-24T06:35:44;15.57;;;7.72;;
45836;SDS011;31548;51.420;-0.040;2023-04-24T06:38:12;17.25;;;6.72;;
45836;SDS011;31548;51.420;-0.040;2023-04-24T06:40:40;14.02;;;6.10;;
45836;SDS011;31548;51.420;-0.040;2023-04-24T06:43:07;17.52;;;4.88;;
45836;SDS011;31548;51.420;-0.040;2023-04-24T06:45:35;10.75;;;3.53;;
45836;SDS011;31548;51.420;-0.040;2023-04-24T06:48:03;13.20;;;4.10;;
45836;SDS011;31548;51.420;-0.040;2023-04-24T06:50:30;12.73;;;3.58;;
45836;SDS011;31548;51.420;-0.040;2023-04-24T06:52:58;9.48;;;2.55;;
45836;SDS011;31548;51.420;-0.040;2023-04-24T06:55:25;9.70;;;2.85;;
45836;SDS011;31548;51.420;-0.040;2023-04-24T06:57:53;9.38;;;2.22;;
45836;SDS011;31548;51.420;-0.040;2023-04-24T07:00:21;6.82;;;2.13;;
45836;SDS011;31548;51.420;-0.040;2023-04-24T07:02:51;12.27;;;2.38;;
45836;SDS011;31548;51.420;-0.040;2023-04-24T07:05:18;8.18;;;1.95;;
45836;SDS011;31548;51.420;-0.040;2023-04-24T07:07:50;5.45;;;1.90;;
45836;SDS011;31548;51.420;-0.040;2023-04-24T07:10:17;6.50;;;1.40;;
45836;SDS011;31548;51.420;-0.040;2023-04-24T07:12:45;7.05;;;1.48;;
45836;SDS011;31548;51.420;-0.040;2023-04-24T07:15:13;6.03;;;1.00;;
45836;SDS011;31548;51.420;-0.040;2023-04-24T07:17:41;3.55;;;1.02;;
45836;SDS011;31548;51.420;-0.040;2023-04-24T07:20:11;7.57;;;1.10;;
45836;SDS011;31548;51.420;-0.040;2023-04-24T07:22:41;7.03;;;1.00;;
45836;SDS011;31548;51.420;-0.040;2023-04-24T07:25:08;5.80;;;0.93;;
45836;SDS011;31548;51.420;-0.040;2023-04-24T07:27:36;9.10;;;1.52;;
45836;SDS011;31548;51.420;-0.040;2023-04-24T07:30:04;6.70;;;1.20;;
45836;SDS011;31548;51.420;-0.040;2023-04-24T07:32:33;7.43;;;1.30;;
45836;SDS011;31548;51.420;-0.040;2023-04-24T07:35:01;10.93;;;1.27;;
45836;SDS011;31548;51.420;-0.040;2023-04-24T07:37:29;3.92;;;1.10;;
45836;SDS011;31548;51.420;-0.040;2023-04-24T07:39:57;7.13;;;1.08;;
45836;SDS011;31548;51.420;-0.040;2023-04-24T07:42:25;3.85;;;1.35;;
45836;SDS011;31548;51.420;-0.040;2023-04-24T07:44:52;9.75;;;2.75;;
45836;SDS011;31548;51.420;-0.040;2023-04-24T07:47:20;11.57;;;1.00;;
45836;SDS011;31548;51.420;-0.040;2023-04-24T07:49:48;4.25;;;1.00;;
45836;SDS011;31548;51.420;-0.040;2023-04-24T07:52:15;4.85;;;1.00;;
45836;SDS011;31548;51.420;-0.040;2023-04-24T07:54:43;8.85;;;0.90;;
45836;SDS011;31548;51.420;-0.040;2023-04-24T07:57:11;4.75;;;0.90;;
45836;SDS011;31548;51.420;-0.040;2023-04-24T07:59:38;4.13;;;0.70;;
45836;SDS011;31548;51.420;-0.040;2023-04-24T08:02:06;4.55;;;0.80;;
45836;SDS011;31548;51.420;-0.040;2023-04-24T08:04:34;5.03;;;1.00;;
45836;SDS011;31548;51.420;-0.040;2023-04-24T08:07:02;5.18;;;1.23;;
45836;SDS011;31548;51.420;-0.040;2023-04-24T08:09:29;6.65;;;1.27;;
45836;SDS011;31548;51.420;-0.040;2023-04-24T08:11:57;6.55;;;1.00;;
45836;SDS011;31548;51.420;-0.040;2023-04-24T08:14:24;6.53;;;1.60;;
45836;SDS011;31548;51.420;-0.040;2023-04-24T08:16:53;6.13;;;1.88;;
45836;SDS011;31548;51.420;-0.040;2023-04-24T08:19:22;2.75;;;1.33;;
45836;SDS011;31548;51.420;-0.040;2023-04-24T08:21:50;8.00;;;1.88;;
45836;SDS011;31548;51.420;-0.040;2023-04-24T08:24:17;4.38;;;1.27;;
45836;SDS011;31548;51.420;-0.040;2023-04-24T08:26:45;7.38;;;1.10;;
45836;SDS011;31548;51.420;-0.040;2023-04-24T08:29:13;8.32;;;1.00;;
45836;SDS011;31548;51.420;-0.040;2023-04-24T08:31:40;10.23;;;1.98;;
45836;SDS011;31548;51.420;-0.040;2023-04-24T08:34:09;5.85;;;1.73;;
45836;SDS011;31548;51.420;-0.040;2023-04-24T08:36:37;3.72;;;0.95;;
45836;SDS011;31548;51.420;-0.040;2023-04-24T08:39:12;9.73;;;1.60;;
45836;SDS011;31548;51.420;-0.040;2023-04-24T08:41:44;6.55;;;1.27;;
45836;SDS011;31548;51.420;-0.040;2023-04-24T08:44:12;7.05;;;1.20;;
45836;SDS011;31548;51.420;-0.040;2023-04-24T08:46:42;8.10;;;1.50;;
45836;SDS011;31548;51.420;-0.040;2023-04-24T08:49:15;7.10;;;1.27;;
45836;SDS011;31548;51.420;-0.040;2023-04-24T08:51:43;14.18;;;3.03;;
45836;SDS011;31548;51.420;-0.040;2023-04-24T08:54:13;6.10;;;1.08;;
45836;SDS011;31548;51.420;-0.040;2023-04-24T08:56:43;8.07;;;2.00;;
45836;SDS011;31548;51.420;-0.040;2023-04-24T08:59:11;6.03;;;1.38;;
45836;SDS011;31548;51.420;-0.040;2023-04-24T09:01:40;3.78;;;1.42;;
45836;SDS011;31548;51.420;-0.040;2023-04-24T09:04:09;8.93;;;1.70;;
45836;SDS011;31548;51.420;-0.040;2023-04-24T09:06:38;6.97;;;1.23;;
45836;SDS011;31548;51.420;-0.040;2023-04-24T09:09:06;5.28;;;1.52;;
45836;SDS011;31548;51.420;-0.040;2023-04-24T09:11:35;6.88;;;3.15;;
45836;SDS011;31548;51.420;-0.040;2023-04-24T09:14:04;13.32;;;2.75;;
45836;SDS011;31548;51.420;-0.040;2023-04-24T09:16:31;8.05;;;2.10;;
45836;SDS011;31548;51.420;-0.040;2023-04-24T09:19:02;10.85;;;1.80;;
45836;SDS011;31548;51.420;-0.040;2023-04-24T09:21:33;9.55;;;2.42;;
45836;SDS011;31548;51.420;-0.040;2023-04-24T09:24:02;6.53;;;1.83;;
45836;SDS011;31548;51.420;-0.040;2023-04-24T09:26:34;8.65;;;1.92;;
45836;SDS011;31548;51.420;-0.040;2023-04-24T09:29:03;8.07;;;2.20;;
45836;SDS011;31548;51.420;-0.040;2023-04-24T09:31:31;9.68;;;1.63;;
45836;SDS011;31548;51.420;-0.040;2023-04-24T09:34:03;5.70;;;1.40;;
45836;SDS011;31548;51.420;-0.040;2023-04-24T09:36:35;6.07;;;1.70;;
45836;SDS011;31548;51.420;-0.040;2023-04-24T09:39:05;8.45;;;2.08;;
45836;SDS011;31548;51.420;-0.040;2023-04-24T09:44:24;9.45;;;2.42;;
45836;SDS011;31548;51.420;-0.040;2023-04-24T09:46:57;12.50;;;2.78;;
45836;SDS011;31548;51.420;-0.040;2023-04-24T09:52:06;9.38;;;2.05;;
45836;SDS011;31548;51.420;-0.040;2023-04-24T09:54:35;9.30;;;1.75;;
45836;SDS011;31548;51.420;-0.040;2023-04-24T09:57:04;5.10;;;1.67;;
45836;SDS011;31548;51.420;-0.040;2023-04-24T09:59:33;8.05;;;2.17;;
45836;SDS011;31548;51.420;-0.040;2023-04-24T10:02:03;9.00;;;2.30;;
45836;SDS011;31548;51.420;-0.040;2023-04-24T10:04:53;8.05;;;2.05;;
45836;SDS011;31548;51.420;-0.040;2023-04-24T10:07:26;7.32;;;2.20;;
45836;SDS011;31548;51.420;-0.040;2023-04-24T10:09:54;8.90;;;2.35;;
45836;SDS011;31548;51.420;-0.040;2023-04-24T10:12:21;12.23;;;2.30;;
45836;SDS011;31548;51.420;-0.040;2023-04-24T10:14:51;7.40;;;1.45;;
45836;SDS011;31548;51.420;-0.040;2023-04-24T10:17:19;4.95;;;1.83;;
45836;SDS011;31548;51.420;-0.040;2023-04-24T10:19:48;9.20;;;1.83;;
45836;SDS011;31548;51.420;-0.040;2023-04-24T10:22:16;6.15;;;1.80;;
45836;SDS011;31548;51.420;-0.040;2023-04-24T10:24:44;4.55;;;1.85;;
45836;SDS011;31548;51.420;-0.040;2023-04-24T10:27:14;8.00;;;2.58;;
45836;SDS011;31548;51.420;-0.040;2023-04-24T10:29:42;8.68;;;2.78;;
45836;SDS011;31548;51.420;-0.040;2023-04-24T10:32:11;12.10;;;2.22;;
45836;SDS011;31548;51.420;-0.040;2023-04-24T10:34:39;12.10;;;1.90;;
45836;SDS011;31548;51.420;-0.040;2023-04-24T10:37:06;10.50;;;2.17;;
45836;SDS011;31548;51.420;-0.040;2023-04-24T10:39:34;8.60;;;2.10;;
45836;SDS011;31548;51.420;-0.040;2023-04-24T10:42:13;9.90;;;1.75;;
45836;SDS011;31548;51.420;-0.040;2023-04-24T10:44:42;8.05;;;1.95;;
45836;SDS011;31548;51.420;-0.040;2023-04-24T10:47:13;6.78;;;1.52;;
45836;SDS011;31548;51.420;-0.040;2023-04-24T10:49:41;5.32;;;2.08;;
45836;SDS011;31548;51.420;-0.040;2023-04-24T10:52:09;6.95;;;2.22;;
45836;SDS011;31548;51.420;-0.040;2023-04-24T10:59:44;8.40;;;2.35;;
45836;SDS011;31548;51.420;-0.040;2023-04-24T11:02:16;7.00;;;2.15;;
45836;SDS011;31548;51.420;-0.040;2023-04-24T11:04:44;8.45;;;2.28;;
45836;SDS011;31548;51.420;-0.040;2023-04-24T11:07:13;8.95;;;2.00;;
45836;SDS011;31548;51.420;-0.040;2023-04-24T11:09:40;7.43;;;1.67;;
45836;SDS011;31548;51.420;-0.040;2023-04-24T11:12:12;11.60;;;2.55;;
45836;SDS011;31548;51.420;-0.040;2023-04-24T11:17:44;11.88;;;2.90;;
45836;SDS011;31548;51.420;-0.040;2023-04-24T11:20:16;8.30;;;2.22;;
45836;SDS011;31548;51.420;-0.040;2023-04-24T11:22:54;19.60;;;2.80;;
45836;SDS011;31548;51.420;-0.040;2023-04-24T11:25:22;9.27;;;2.35;;
45836;SDS011;31548;51.420;-0.040;2023-04-24T11:27:50;11.75;;;2.78;;
45836;SDS011;31548;51.420;-0.040;2023-04-24T11:30:29;9.80;;;2.30;;
45836;SDS011;31548;51.420;-0.040;2023-04-24T11:33:04;12.57;;;2.35;;
45836;SDS011;31548;51.420;-0.040;2023-04-24T11:35:39;10.88;;;1.85;;
45836;SDS011;31548;51.420;-0.040;2023-04-24T11:38:07;8.82;;;2.80;;
45836;SDS011;31548;51.420;-0.040;2023-04-24T11:40:39;7.80;;;3.00;;
45836;SDS011;31548;51.420;-0.040;2023-04-24T11:43:07;7.47;;;2.72;;
45836;SDS011;31548;51.420;-0.040;2023-04-24T11:45:36;6.18;;;3.20;;
45836;SDS011;31548;51.420;-0.040;2023-04-24T11:48:04;9.07;;;2.25;;
45836;SDS011;31548;51.420;-0.040;2023-04-24T11:50:31;9.60;;;2.70;;
45836;SDS011;31548;51.420;-0.040;2023-04-24T11:52:59;10.45;;;2.97;;
45836;SDS011;31548;51.420;-0.040;2023-04-24T11:55:27;10.93;;;2.90;;
45836;SDS011;31548;51.420;-0.040;2023-04-24T11:57:56;13.98;;;2.67;;
45836;SDS011;31548;51.420;-0.040;2023-04-24T12:00:29;9.82;;;2.97;;
45836;SDS011;31548;51.420;-0.040;2023-04-24T12:03:08;12.68;;;3.28;;
45836;SDS011;31548;51.420;-0.040;2023-04-24T12:05:37;10.35;;;2.45;;
45836;SDS011;31548;51.420;-0.040;2023-04-24T12:08:05;14.52;;;4.53;;
45836;SDS011;31548;51.420;-0.040;2023-04-24T12:10:33;14.52;;;3.90;;
45836;SDS011;31548;51.420;-0.040;2023-04-24T12:13:01;9.18;;;3.15;;
45836;SDS011;31548;51.420;-0.040;2023-04-24T12:15:29;9.57;;;2.88;;
45836;SDS011;31548;51.420;-0.040;2023-04-24T12:17:57;11.70;;;2.85;;
45836;SDS011;31548;51.420;-0.040;2023-04-24T12:22:57;14.25;;;3.70;;
45836;SDS011;31548;51.420;-0.040;2023-04-24T12:25:26;7.93;;;3.22;;
45836;SDS011;31548;51.420;-0.040;2023-04-24T12:30:50;6.60;;;2.13;;
45836;SDS011;31548;51.420;-0.040;2023-04-24T12:33:18;10.60;;;3.35;;
45836;SDS011;31548;51.420;-0.040;2023-04-24T12:35:47;9.52;;;3.17;;
45836;SDS011;31548;51.420;-0.040;2023-04-24T12:38:21;10.93;;;3.72;;
45836;SDS011;31548;51.420;-0.040;2023-04-24T12:41:01;6.55;;;2.53;;
45836;SDS011;31548;51.420;-0.040;2023-04-24T12:43:33;5.65;;;2.40;;
45836;SDS011;31548;51.420;-0.040;2023-04-24T12:46:01;11.70;;;3.75;;
45836;SDS011;31548;51.420;-0.040;2023-04-24T12:48:29;8.60;;;2.75;;
45836;SDS011;31548;51.420;-0.040;2023-04-24T12:50:57;13.00;;;3.05;;
45836;SDS011;31548;51.420;-0.040;2023-04-24T12:53:28;11.38;;;3.80;;
45836;SDS011;31548;51.420;-0.040;2023-04-24T12:55:57;11.70;;;4.18;;
45836;SDS011;31548;51.420;-0.040;2023-04-24T12:58:25;8.05;;;3.15;;
45836;SDS011;31548;51.420;-0.040;2023-04-24T13:00:52;6.63;;;2.58;;
45836;SDS011;31548;51.420;-0.040;2023-04-24T13:03:21;5.35;;;2.42;;
45836;SDS011;31548;51.420;-0.040;2023-04-24T13:05:49;3.47;;;1.65;;
45836;SDS011;31548;51.420;-0.040;2023-04-24T13:08:16;3.75;;;1.50;;
45836;SDS011;31548;51.420;-0.040;2023-04-24T13:10:44;10.18;;;2.03;;
45836;SDS011;31548;51.420;-0.040;2023-04-24T13:13:12;4.97;;;2.30;;
45836;SDS011;31548;51.420;-0.040;2023-04-24T13:15:39;6.40;;;2.22;;
45836;SDS011;31548;51.420;-0.040;2023-04-24T13:18:07;7.13;;;1.60;;
45836;SDS011;31548;51.420;-0.040;2023-04-24T13:20:34;9.32;;;3.28;;
45836;SDS011;31548;51.420;-0.040;2023-04-24T13:23:02;3.72;;;2.17;;
45836;SDS011;31548;51.420;-0.040;2023-04-24T13:25:34;6.53;;;2.65;;
45836;SDS011;31548;51.420;-0.040;2023-04-24T13:28:02;7.50;;;2.15;;
45836;SDS011;31548;51.420;-0.040;2023-04-24T13:30:30;5.70;;;2.47;;
45836;SDS011;31548;51.420;-0.040;2023-04-24T13:32:58;5.75;;;1.85;;
45836;SDS011;31548;51.420;-0.040;2023-04-24T13:35:26;5.57;;;2.15;;
45836;SDS011;31548;51.420;-0.040;2023-04-24T13:37:54;11.68;;;2.33;;
45836;SDS011;31548;51.420;-0.040;2023-04-24T13:40:21;7.60;;;2.75;;
45836;SDS011;31548;51.420;-0.040;2023-04-24T13:42:49;3.65;;;1.80;;
45836;SDS011;31548;51.420;-0.040;2023-04-24T13:45:16;9.80;;;2.50;;
45836;SDS011;31548;51.420;-0.040;2023-04-24T13:47:49;8.27;;;2.05;;
45836;SDS011;31548;51.420;-0.040;2023-04-24T13:50:18;11.23;;;3.03;;
45836;SDS011;31548;51.420;-0.040;2023-04-24T13:52:46;5.43;;;2.15;;
45836;SDS011;31548;51.420;-0.040;2023-04-24T13:55:14;5.85;;;1.77;;
45836;SDS011;31548;51.420;-0.040;2023-04-24T13:57:41;8.18;;;1.92;;
45836;SDS011;31548;51.420;-0.040;2023-04-24T14:00:09;8.90;;;2.22;;
45836;SDS011;31548;51.420;-0.040;2023-04-24T14:02:37;4.90;;;2.38;;
45836;SDS011;31548;51.420;-0.040;2023-04-24T14:05:05;8.77;;;2.10;;
45836;SDS011;31548;51.420;-0.040;2023-04-24T14:07:33;4.70;;;2.03;;
45836;SDS011;31548;51.420;-0.040;2023-04-24T14:10:01;12.55;;;2.42;;
45836;SDS011;31548;51.420;-0.040;2023-04-24T14:12:28;8.05;;;1.50;;
45836;SDS011;31548;51.420;-0.040;2023-04-24T14:14:56;6.30;;;1.67;;
45836;SDS011;31548;51.420;-0.040;2023-04-24T14:17:24;6.22;;;1.65;;
45836;SDS011;31548;51.420;-0.040;2023-04-24T14:19:51;4.85;;;1.90;;
45836;SDS011;31548;51.420;-0.040;2023-04-24T14:22:23;10.80;;;2.10;;
45836;SDS011;31548;51.420;-0.040;2023-04-24T14:24:50;12.77;;;1.67;;
45836;SDS011;31548;51.420;-0.040;2023-04-24T14:27:18;4.90;;;1.52;;
45836;SDS011;31548;51.420;-0.040;2023-04-24T14:29:46;11.10;;;2.28;;
45836;SDS011;31548;51.420;-0.040;2023-04-24T14:32:13;6.85;;;1.75;;
45836;SDS011;31548;51.420;-0.040;2023-04-24T14:34:41;3.50;;;1.75;;
45836;SDS011;31548;51.420;-0.040;2023-04-24T14:37:09;3.75;;;1.92;;
45836;SDS011;31548;51.420;-0.040;2023-04-24T14:39:37;5.28;;;1.33;;
45836;SDS011;31548;51.420;-0.040;2023-04-24T14:42:04;4.38;;;1.25;;
45836;SDS011;31548;51.420;-0.040;2023-04-24T14:44:32;6.43;;;1.13;;
45836;SDS011;31548;51.420;-0.040;2023-04-24T14:47:00;2.72;;;1.42;;
45836;SDS011;31548;51.420;-0.040;2023-04-24T14:49:28;10.93;;;1.52;;
45836;SDS011;31548;51.420;-0.040;2023-04-24T14:51:55;12.32;;;2.85;;
45836;SDS011;31548;51.420;-0.040;2023-04-24T14:54:23;10.60;;;2.55;;
45836;SDS011;31548;51.420;-0.040;2023-04-24T14:56:52;14.77;;;2.63;;
45836;SDS011;31548;51.420;-0.040;2023-04-24T14:59:21;13.05;;;1.92;;
45836;SDS011;31548;51.420;-0.040;2023-04-24T15:01:48;6.63;;;1.55;;
45836;SDS011;31548;51.420;-0.040;2023-04-24T15:04:30;6.57;;;1.30;;
45836;SDS011;31548;51.420;-0.040;2023-04-24T15:06:58;5.22;;;1.52;;
45836;SDS011;31548;51.420;-0.040;2023-04-24T15:09:26;5.45;;;1.50;;
45836;SDS011;31548;51.420;-0.040;2023-04-24T15:11:54;3.47;;;1.40;;
45836;SDS011;31548;51.420;-0.040;2023-04-24T15:14:22;3.35;;;1.20;;
45836;SDS011;31548;51.420;-0.040;2023-04-24T15:16:49;2.83;;;1.40;;
45836;SDS011;31548;51.420;-0.040;2023-04-24T15:19:17;4.63;;;1.35;;
45836;SDS011;31548;51.420;-0.040;2023-04-24T15:21:45;2.55;;;1.50;;
45836;SDS011;31548;51.420;-0.040;2023-04-24T15:24:12;2.13;;;1.00;;
45836;SDS011;31548;51.420;-0.040;2023-04-24T15:26:40;3.33;;;1.00;;
45836;SDS011;31548;51.420;-0.040;2023-04-24T15:29:08;2.78;;;1.10;;
45836;SDS011;31548;51.420;-0.040;2023-04-24T15:31:36;2.30;;;1.25;;
45836;SDS011;31548;51.420;-0.040;2023-04-24T15:34:07;5.57;;;1.15;;
45836;SDS011;31548;51.420;-0.040;2023-04-24T15:36:36;3.53;;;1.45;;
45836;SDS011;31548;51.420;-0.040;2023-04-24T15:39:04;5.30;;;1.40;;
45836;SDS011;31548;51.420;-0.040;2023-04-24T15:41:35;1.73;;;1.08;;
45836;SDS011;31548;51.420;-0.040;2023-04-24T15:44:03;3.28;;;1.25;;
45836;SDS011;31548;51.420;-0.040;2023-04-24T15:46:31;5.05;;;1.25;;
45836;SDS011;31548;51.420;-0.040;2023-04-24T15:49:02;1.90;;;0.82;;
45836;SDS011;31548;51.420;-0.040;2023-04-24T15:51:30;7.05;;;1.75;;
45836;SDS011;31548;51.420;-0.040;2023-04-24T15:53:58;3.80;;;1.73;;
45836;SDS011;31548;51.420;-0.040;2023-04-24T15:56:26;3.92;;;2.42;;
45836;SDS011;31548;51.420;-0.040;2023-04-24T15:58:57;1.95;;;1.38;;
45836;SDS011;31548;51.420;-0.040;2023-04-24T16:01:26;4.50;;;1.90;;
45836;SDS011;31548;51.420;-0.040;2023-04-24T16:03:54;2.47;;;1.60;;
45836;SDS011;31548;51.420;-0.040;2023-04-24T16:06:23;3.50;;;1.13;;
45836;SDS011;31548;51.420;-0.040;2023-04-24T16:08:51;6.18;;;1.20;;
45836;SDS011;31548;51.420;-0.040;2023-04-24T16:11:19;4.10;;;1.80;;
45836;SDS011;31548;51.420;-0.040;2023-04-24T16:13:47;3.38;;;1.20;;
45836;SDS011;31548;51.420;-0.040;2023-04-24T16:16:15;4.10;;;1.58;;
45836;SDS011;31548;51.420;-0.040;2023-04-24T16:18:43;2.47;;;2.00;;
45836;SDS011;31548;51.420;-0.040;2023-04-24T16:21:11;1.33;;;1.00;;
45836;SDS011;31548;51.420;-0.040;2023-04-24T16:23:39;7.55;;;1.52;;
45836;SDS011;31548;51.420;-0.040;2023-04-24T16:26:08;5.43;;;2.10;;
45836;SDS011;31548;51.420;-0.040;2023-04-24T16:28:36;4.68;;;1.80;;
45836;SDS011;31548;51.420;-0.040;2023-04-24T16:31:04;2.08;;;1.40;;
45836;SDS011;31548;51.420;-0.040;2023-04-24T16:33:32;4.93;;;1.00;;
45836;SDS011;31548;51.420;-0.040;2023-04-24T16:36:00;2.42;;;1.00;;
45836;SDS011;31548;51.420;-0.040;2023-04-24T16:38:31;3.00;;;0.95;;
45836;SDS011;31548;51.420;-0.040;2023-04-24T16:40:59;3.15;;;1.08;;
45836;SDS011;31548;51.420;-0.040;2023-04-24T16:43:27;2.95;;;1.30;;
45836;SDS011;31548;51.420;-0.040;2023-04-24T16:45:55;2.85;;;0.75;;
45836;SDS011;31548;51.420;-0.040;2023-04-24T16:48:23;2.10;;;1.20;;
45836;SDS011;31548;51.420;-0.040;2023-04-24T16:50:51;3.25;;;1.13;;
45836;SDS011;31548;51.420;-0.040;2023-04-24T16:53:18;1.15;;;0.80;;
45836;SDS011;31548;51.420;-0.040;2023-04-24T16:55:47;1.50;;;0.85;;
45836;SDS011;31548;51.420;-0.040;2023-04-24T16:58:16;2.10;;;0.95;;
45836;SDS011;31548;51.420;-0.040;2023-04-24T17:00:44;0.90;;;0.70;;
45836;SDS011;31548;51.420;-0.040;2023-04-24T17:03:14;2.78;;;1.33;;
45836;SDS011;31548;51.420;-0.040;2023-04-24T17:05:42;1.45;;;0.90;;
45836;SDS011;31548;51.420;-0.040;2023-04-24T17:08:12;1.83;;;0.80;;
45836;SDS011;31548;51.420;-0.040;2023-04-24T17:10:40;1.77;;;0.85;;
45836;SDS011;31548;51.420;-0.040;2023-04-24T17:13:07;2.35;;;0.90;;
45836;SDS011;31548;51.420;-0.040;2023-04-24T17:15:35;1.10;;;0.95;;
45836;SDS011;31548;51.420;-0.040;2023-04-24T17:18:02;2.10;;;1.00;;
45836;SDS011;31548;51.420;-0.040;2023-04-24T17:20:31;3.90;;;1.13;;
45836;SDS011;31548;51.420;-0.040;2023-04-24T17:22:58;1.88;;;0.75;;
45836;SDS011;31548;51.420;-0.040;2023-04-24T17:25:26;2.17;;;0.80;;
45836;SDS011;31548;51.420;-0.040;2023-04-24T17:27:54;1.67;;;1.00;;
45836;SDS011;31548;51.420;-0.040;2023-04-24T17:30:21;3.28;;;1.00;;
45836;SDS011;31548;51.420;-0.040;2023-04-24T17:32:49;1.55;;;1.00;;
45836;SDS011;31548;51.420;-0.040;2023-04-24T17:35:16;4.78;;;1.05;;
45836;SDS011;31548;51.420;-0.040;2023-04-24T17:37:47;3.35;;;1.42;;
45836;SDS011;31548;51.420;-0.040;2023-04-24T17:40:14;3.00;;;1.63;;
45836;SDS011;31548;51.420;-0.040;2023-04-24T17:42:42;3.85;;;1.52;;
45836;SDS011;31548;51.420;-0.040;2023-04-24T17:45:10;2.20;;;1.45;;
45836;SDS011;31548;51.420;-0.040;2023-04-24T17:47:38;5.05;;;2.00;;
45836;SDS011;31548;51.420;-0.040;2023-04-24T17:50:05;2.72;;;1.10;;
45836;SDS011;31548;51.420;-0.040;2023-04-24T17:52:33;7.90;;;1.60;;